Time;durP1;ratioP1;P1;durP2;ratioP2;P2;SDS_P1;SDS_P2;PMS_P1;PMS_P2;Temp;Humidity;BMP_temperature;BMP_pressure;BME280_temperature;BME280_humidity;BME280_pressure;Samples;Min_cycle;Max_cycle;Signal;HPM_P1;HPM_P2
2022/08/10 00:02:44;;;;;;;1.90;1.40;;;12.00;57.80;;;;;;5065879;28;20217;-43
2022/08/10 00:05:16;;;;;;;1.83;1.20;;;12.00;57.80;;;;;;5053502;28;20234;-36
2022/08/10 00:07:47;;;;;;;2.55;1.38;;;12.00;57.80;;;;;;5069397;28;20214;-39
2022/08/10 00:10:20;;;;;;;2.65;1.33;;;12.00;57.90;;;;;;5069046;28;20324;-36
2022/08/10 00:12:51;;;;;;;2.47;1.27;;;12.10;57.90;;;;;;5069329;28;20799;-37
2022/08/10 00:15:23;;;;;;;2.58;1.20;;;12.10;58.00;;;;;;5069230;28;20210;-36
2022/08/10 00:17:54;;;;;;;2.00;1.30;;;12.10;58.20;;;;;;5066734;28;20226;-36
2022/08/10 00:20:27;;;;;;;1.10;1.00;;;12.20;58.30;;;;;;5074324;28;20205;-36
2022/08/10 00:22:58;;;;;;;1.27;0.98;;;12.20;58.30;;;;;;5080383;28;20195;-36
2022/08/10 00:25:28;;;;;;;2.13;1.33;;;12.30;58.30;;;;;;5069495;28;20266;-36
2022/08/10 00:27:59;;;;;;;2.45;1.20;;;12.30;58.30;;;;;;5069590;28;20207;-36
2022/08/10 00:30:30;;;;;;;1.65;0.98;;;12.30;58.20;;;;;;5068594;28;20643;-36
2022/08/10 00:33:00;;;;;;;1.38;1.02;;;12.40;58.20;;;;;;5049825;28;20199;-36
2022/08/10 00:35:33;;;;;;;1.65;0.88;;;12.40;58.20;;;;;;5053766;28;20206;-38
2022/08/10 00:38:04;;;;;;;1.58;0.93;;;12.40;58.10;;;;;;5062492;28;20235;-36
2022/08/10 00:40:34;;;;;;;1.63;1.05;;;12.40;58.20;;;;;;5055073;28;20191;-35
2022/08/10 00:43:05;;;;;;;1.15;0.90;;;12.50;58.30;;;;;;5068731;28;20923;-36
2022/08/10 00:45:36;;;;;;;1.52;1.10;;;12.50;58.30;;;;;;5069132;28;20203;-36
2022/08/10 00:48:08;;;;;;;2.03;1.20;;;12.50;58.20;;;;;;5070132;28;20191;-36
2022/08/10 00:50:40;;;;;;;1.40;1.00;;;12.60;58.20;;;;;;5069483;28;20191;-36
2022/08/10 00:53:11;;;;;;;1.48;1.13;;;12.60;58.20;;;;;;5069625;28;20240;-36
2022/08/10 00:55:42;;;;;;;2.33;1.23;;;12.60;58.20;;;;;;5074174;28;20206;-36
2022/08/10 00:58:13;;;;;;;2.17;1.30;;;12.70;58.20;;;;;;5049188;28;20450;-36
2022/08/10 01:00:46;;;;;;;1.58;1.33;;;12.70;58.20;;;;;;5057904;28;20186;-37
2022/08/10 01:03:17;;;;;;;1.88;1.05;;;12.70;58.10;;;;;;5071754;28;20323;-36
2022/08/10 01:06:00;;;;;;;2.35;1.08;;;12.80;58.20;;;;;;5073224;28;20219;-36
2022/08/10 01:08:37;;;;;;;1.83;1.08;;;12.80;58.20;;;;;;5072628;28;20662;-36
2022/08/10 01:11:16;;;;;;;1.30;1.00;;;12.80;58.10;;;;;;5073186;28;20194;-37
2022/08/10 01:13:56;;;;;;;1.15;0.95;;;12.80;58.10;;;;;;5071718;28;20205;-36
2022/08/10 01:16:32;;;;;;;2.20;1.30;;;12.90;58.10;;;;;;5072197;28;20223;-36
2022/08/10 01:19:10;;;;;;;1.70;1.13;;;12.90;58.10;;;;;;5071911;28;20206;-39
2022/08/10 01:22:23;;;;;;;1.17;1.02;;;12.90;58.10;;;;;;5062812;28;20199;-36
2022/08/10 01:25:23;;;;;;;1.15;0.90;;;13.00;58.20;;;;;;5048347;28;20206;-36
2022/08/10 01:28:05;;;;;;;2.13;1.20;;;13.00;58.10;;;;;;5062361;28;20605;-41
2022/08/10 01:30:39;;;;;;;1.73;1.20;;;13.00;58.00;;;;;;5071528;28;20221;-36
2022/08/10 01:33:13;;;;;;;1.63;1.00;;;13.10;58.00;;;;;;5072842;28;20298;-36
2022/08/10 01:35:51;;;;;;;1.38;1.00;;;13.10;58.00;;;;;;5072361;28;20210;-36
2022/08/10 01:38:25;;;;;;;1.98;1.33;;;13.10;58.20;;;;;;5072454;28;20266;-42
2022/08/10 01:41:07;;;;;;;1.10;0.82;;;13.10;58.00;;;;;;5072707;28;20195;-36
2022/08/10 01:43:43;;;;;;;1.00;0.90;;;13.20;58.00;;;;;;5072666;28;20301;-36
2022/08/10 01:46:17;;;;;;;1.48;0.90;;;13.20;57.90;;;;;;5071964;28;20210;-36
2022/08/10 01:48:49;;;;;;;1.27;1.10;;;13.20;57.90;;;;;;5072285;28;20205;-36
2022/08/10 01:51:24;;;;;;;1.35;0.88;;;13.30;57.90;;;;;;5071760;28;20194;-36
2022/08/10 01:54:00;;;;;;;1.48;0.98;;;13.30;57.90;;;;;;5072085;28;20199;-36
2022/08/10 01:56:33;;;;;;;1.33;1.10;;;13.30;58.00;;;;;;5072379;28;20218;-46
2022/08/10 01:59:07;;;;;;;1.83;1.20;;;13.40;58.20;;;;;;5071833;28;20207;-36
2022/08/10 02:01:43;;;;;;;2.45;1.08;;;13.40;58.40;;;;;;5072402;28;20202;-36
2022/08/10 02:04:15;;;;;;;1.73;1.00;;;13.40;58.50;;;;;;5071415;28;20203;-39
2022/08/10 02:06:50;;;;;;;1.88;1.15;;;13.50;58.40;;;;;;5072123;28;20219;-36
2022/08/10 02:09:24;;;;;;;1.67;0.93;;;13.50;58.30;;;;;;5070827;28;20198;-36
2022/08/10 02:11:57;;;;;;;2.30;1.00;;;13.60;58.20;;;;;;5071817;28;20574;-36
2022/08/10 02:14:30;;;;;;;0.90;0.80;;;13.60;58.20;;;;;;5071535;28;20191;-36
2022/08/10 02:17:05;;;;;;;1.05;0.95;;;13.60;58.20;;;;;;5071534;28;20221;-36
2022/08/10 02:19:39;;;;;;;1.90;1.30;;;13.70;58.20;;;;;;5070642;28;20192;-37
2022/08/10 02:22:12;;;;;;;1.20;0.77;;;13.70;58.00;;;;;;5068163;28;20286;-46
2022/08/10 02:24:45;;;;;;;1.38;0.90;;;13.70;58.00;;;;;;5064420;28;20187;-42
2022/08/10 02:27:16;;;;;;;1.50;0.98;;;13.70;57.90;;;;;;5070676;28;20227;-37
2022/08/10 02:29:48;;;;;;;1.00;0.90;;;13.80;57.90;;;;;;5071460;28;20198;-46
2022/08/10 02:32:25;;;;;;;1.33;0.95;;;13.80;57.80;;;;;;5071475;28;20195;-37
2022/08/10 02:34:57;;;;;;;1.50;1.10;;;13.80;57.70;;;;;;5071582;28;20190;-37
2022/08/10 02:37:29;;;;;;;2.42;1.33;;;13.80;57.70;;;;;;5082299;28;20234;-36
2022/08/10 02:40:00;;;;;;;1.10;0.95;;;13.90;57.60;;;;;;5071425;28;20199;-37
2022/08/10 02:42:35;;;;;;;1.42;0.98;;;13.90;57.50;;;;;;5070380;28;20190;-39
2022/08/10 02:45:09;;;;;;;1.20;1.10;;;14.00;57.50;;;;;;5050921;28;20226;-36
2022/08/10 02:47:46;;;;;;;1.20;0.90;;;14.00;57.40;;;;;;5051292;28;20205;-46
2022/08/10 02:50:25;;;;;;;2.30;1.15;;;14.00;57.30;;;;;;5051367;28;20195;-45
2022/08/10 02:53:01;;;;;;;1.63;1.02;;;14.10;57.30;;;;;;5056870;28;20207;-37
2022/08/10 02:55:38;;;;;;;1.27;0.98;;;14.10;57.20;;;;;;5068621;28;20587;-37
2022/08/10 02:58:13;;;;;;;1.58;0.93;;;14.10;57.10;;;;;;5057939;28;20262;-37
2022/08/10 03:00:47;;;;;;;1.42;1.05;;;14.20;57.10;;;;;;5051117;28;20239;-37
2022/08/10 03:03:23;;;;;;;1.08;0.93;;;14.20;57.10;;;;;;5051365;28;20210;-37
2022/08/10 03:06:01;;;;;;;1.25;0.90;;;14.20;57.00;;;;;;5051282;28;20218;-37
2022/08/10 03:08:35;;;;;;;1.52;0.93;;;14.20;57.00;;;;;;5089796;28;20209;-37
2022/08/10 03:11:09;;;;;;;1.33;0.93;;;14.20;56.90;;;;;;5091303;28;20197;-41
2022/08/10 03:13:40;;;;;;;2.03;1.00;;;14.20;56.80;;;;;;5091310;28;20198;-37
2022/08/10 03:16:13;;;;;;;0.95;0.88;;;14.30;56.80;;;;;;5090496;28;20218;-37
2022/08/10 03:18:47;;;;;;;0.98;0.90;;;14.30;56.80;;;;;;5090800;28;20226;-38
2022/08/10 03:21:19;;;;;;;1.33;1.00;;;14.30;56.70;;;;;;5090000;28;20653;-36
2022/08/10 03:23:51;;;;;;;1.10;1.00;;;14.30;56.60;;;;;;5050609;28;20201;-38
2022/08/10 03:26:22;;;;;;;1.85;1.00;;;14.40;56.60;;;;;;5055771;28;20214;-40
2022/08/10 03:28:55;;;;;;;1.33;0.90;;;14.40;56.50;;;;;;5070714;28;20202;-37
2022/08/10 03:31:26;;;;;;;2.85;1.30;;;14.40;56.40;;;;;;5070762;28;20646;-44
2022/08/10 03:34:00;;;;;;;2.28;0.98;;;14.50;56.40;;;;;;5070745;28;20195;-41
2022/08/10 03:36:31;;;;;;;1.05;0.73;;;14.50;56.40;;;;;;5070380;28;20683;-43
2022/08/10 03:39:02;;;;;;;2.33;1.10;;;14.50;56.40;;;;;;5070865;28;20222;-37
2022/08/10 03:41:36;;;;;;;1.90;1.05;;;14.50;56.30;;;;;;5070708;28;20638;-37
2022/08/10 03:44:08;;;;;;;1.35;1.17;;;14.50;56.30;;;;;;5070331;28;20195;-42
2022/08/10 03:46:42;;;;;;;1.27;0.90;;;14.60;56.30;;;;;;5070757;28;20229;-37
2022/08/10 03:49:15;;;;;;;1.00;0.90;;;14.50;56.20;;;;;;5066181;28;20206;-37
2022/08/10 03:51:48;;;;;;;1.25;1.00;;;14.60;56.20;;;;;;5059867;28;20202;-40
2022/08/10 03:54:19;;;;;;;1.83;0.90;;;14.60;56.30;;;;;;5061279;28;20214;-37
2022/08/10 03:56:50;;;;;;;1.70;1.05;;;14.60;56.10;;;;;;5066273;28;20211;-42
2022/08/10 03:59:21;;;;;;;1.92;0.93;;;14.60;56.60;;;;;;5070000;28;20195;-38
2022/08/10 04:01:53;;;;;;;1.50;1.02;;;14.70;56.00;;;;;;5069769;28;20203;-39
2022/08/10 04:04:26;;;;;;;2.08;1.25;;;14.70;55.90;;;;;;5070188;28;20210;-37
2022/08/10 04:06:58;;;;;;;1.48;1.05;;;14.70;55.80;;;;;;5057250;28;20211;-37
2022/08/10 04:09:32;;;;;;;1.85;1.00;;;14.70;55.70;;;;;;5087376;28;20190;-40
2022/08/10 04:12:03;;;;;;;1.08;0.88;;;14.70;55.70;;;;;;5076573;28;20228;-37
2022/08/10 04:14:34;;;;;;;1.50;1.17;;;14.70;55.60;;;;;;5069270;28;20198;-37
2022/08/10 04:17:04;;;;;;;2.05;1.30;;;14.80;55.60;;;;;;5064974;28;20727;-37
2022/08/10 04:19:44;;;;;;;2.88;1.30;;;14.70;55.40;;;;;;5068306;28;20217;-36
2022/08/10 04:22:19;;;;;;;2.80;1.60;;;14.80;55.40;;;;;;5068783;28;20214;-46
2022/08/10 04:24:53;;;;;;;1.92;1.48;;;14.70;55.40;;;;;;5050140;28;20195;-37
2022/08/10 04:27:24;;;;;;;2.97;1.60;;;14.80;55.40;;;;;;5062690;28;20707;-41
2022/08/10 04:29:55;;;;;;;2.20;1.55;;;14.80;55.40;;;;;;5069429;28;20198;-42
2022/08/10 04:32:28;;;;;;;2.25;1.52;;;14.80;55.30;;;;;;5069401;28;20202;-37
2022/08/10 04:35:01;;;;;;;2.65;2.00;;;14.70;55.10;;;;;;5073777;28;20199;-37
2022/08/10 04:37:32;;;;;;;2.28;1.77;;;14.80;55.20;;;;;;5069996;28;20229;-37
2022/08/10 04:40:03;;;;;;;2.22;1.83;;;14.80;55.20;;;;;;5052854;28;20546;-37
2022/08/10 04:42:34;;;;;;;3.65;2.40;;;14.80;55.10;;;;;;5057677;28;20537;-37
2022/08/10 04:45:10;;;;;;;2.38;1.80;;;14.80;55.10;;;;;;5072004;28;20198;-39
2022/08/10 04:47:41;;;;;;;3.30;2.00;;;14.80;55.00;;;;;;5073604;28;20286;-37
2022/08/10 04:50:14;;;;;;;4.15;1.88;;;14.80;55.00;;;;;;5071925;28;20203;-40
2022/08/10 04:52:45;;;;;;;2.10;1.88;;;14.80;54.90;;;;;;5072918;28;20191;-37
2022/08/10 04:55:16;;;;;;;2.72;2.03;;;14.80;54.90;;;;;;5072678;28;20217;-37
2022/08/10 04:57:46;;;;;;;3.40;2.25;;;14.80;55.00;;;;;;5078497;28;20226;-37
2022/08/10 05:00:18;;;;;;;2.88;2.30;;;14.80;55.00;;;;;;5072691;28;20202;-37
2022/08/10 05:02:48;;;;;;;3.47;2.55;;;14.80;55.00;;;;;;5072793;28;20549;-45
2022/08/10 05:05:21;;;;;;;2.67;2.40;;;14.80;55.10;;;;;;5059547;28;20216;-37
2022/08/10 05:07:52;;;;;;;5.15;3.03;;;14.80;55.10;;;;;;5055327;28;20829;-37
2022/08/10 05:10:23;;;;;;;3.75;2.15;;;14.80;55.10;;;;;;5072574;28;20207;-37
2022/08/10 05:12:53;;;;;;;4.00;2.80;;;14.80;55.10;;;;;;5073049;28;20195;-37
2022/08/10 05:15:24;;;;;;;3.63;2.22;;;14.80;55.10;;;;;;5072264;28;20230;-36
2022/08/10 05:17:55;;;;;;;2.95;2.47;;;14.80;55.00;;;;;;5072658;28;20225;-37
2022/08/10 05:20:27;;;;;;;3.38;2.50;;;14.80;55.00;;;;;;5072340;28;20191;-43
2022/08/10 05:22:58;;;;;;;3.08;2.28;;;14.80;55.00;;;;;;5074804;28;20199;-38
2022/08/10 05:25:29;;;;;;;3.50;2.70;;;14.80;54.90;;;;;;5092747;28;20221;-40
2022/08/10 05:27:59;;;;;;;2.63;2.25;;;14.80;54.90;;;;;;5074046;28;20195;-45
2022/08/10 05:30:30;;;;;;;3.33;2.75;;;14.70;54.90;;;;;;5072539;28;20584;-37
2022/08/10 05:33:01;;;;;;;3.30;2.55;;;14.70;55.00;;;;;;5073038;28;20206;-41
2022/08/10 05:35:34;;;;;;;3.22;2.45;;;14.70;55.00;;;;;;5071323;28;20211;-36
2022/08/10 05:38:06;;;;;;;4.60;2.88;;;14.70;55.00;;;;;;5073638;28;20219;-43
2022/08/10 05:40:39;;;;;;;3.33;2.90;;;14.70;55.00;;;;;;5092499;28;20194;-38
2022/08/10 05:43:13;;;;;;;3.40;2.90;;;14.70;55.00;;;;;;5092224;28;20198;-40
2022/08/10 05:45:44;;;;;;;3.78;2.80;;;14.70;55.00;;;;;;5091933;28;20218;-45
2022/08/10 05:48:15;;;;;;;4.15;3.00;;;14.70;55.00;;;;;;5092216;28;20202;-37
2022/08/10 05:50:47;;;;;;;4.00;2.95;;;14.70;55.00;;;;;;5092238;28;20662;-37
2022/08/10 05:53:18;;;;;;;3.78;2.53;;;14.70;55.00;;;;;;5084449;28;20190;-37
2022/08/10 05:55:49;;;;;;;3.50;2.65;;;14.60;54.90;;;;;;5072508;28;20222;-40
2022/08/10 05:58:20;;;;;;;3.85;2.88;;;14.60;54.90;;;;;;5071922;28;20213;-40
2022/08/10 06:00:54;;;;;;;3.75;3.00;;;14.60;54.80;;;;;;5072332;28;20681;-38
2022/08/10 06:03:33;;;;;;;3.72;2.92;;;14.60;54.80;;;;;;5071785;28;20252;-37
2022/08/10 06:06:09;;;;;;;5.70;2.95;;;14.50;54.80;;;;;;5072041;28;20215;-37
2022/08/10 06:08:42;;;;;;;3.47;2.80;;;14.50;54.80;;;;;;5072114;28;20198;-41
2022/08/10 06:11:15;;;;;;;4.85;2.92;;;14.50;54.80;;;;;;5072000;28;20201;-37
2022/08/10 06:16:35;;;;;;;5.78;3.05;;;14.40;54.70;;;;;;5091100;28;20236;-40
2022/08/10 06:19:07;;;;;;;3.83;3.45;;;14.40;54.70;;;;;;5083464;28;20218;-41
2022/08/10 06:21:42;;;;;;;3.63;2.83;;;14.40;54.80;;;;;;5091737;28;20757;-37
2022/08/10 06:24:16;;;;;;;3.55;3.25;;;14.30;54.70;;;;;;5092118;28;20219;-38
2022/08/10 06:26:46;;;;;;;4.68;3.38;;;14.30;54.70;;;;;;5083419;28;20234;-37
2022/08/10 06:29:18;;;;;;;3.85;3.00;;;14.30;54.70;;;;;;5071677;28;20191;-38
2022/08/10 06:31:52;;;;;;;3.55;2.78;;;14.30;54.70;;;;;;5071905;28;20197;-37
2022/08/10 06:34:26;;;;;;;4.78;2.90;;;14.20;54.70;;;;;;5071807;28;20198;-37
2022/08/10 06:37:01;;;;;;;5.78;3.10;;;14.20;54.70;;;;;;5051518;28;20211;-38
2022/08/10 06:39:32;;;;;;;4.60;2.97;;;14.20;54.70;;;;;;5051276;28;20710;-37
2022/08/10 06:42:08;;;;;;;4.60;3.03;;;14.10;54.80;;;;;;5051782;28;20674;-44
2022/08/10 06:44:46;;;;;;;3.97;3.00;;;14.10;54.80;;;;;;5051547;28;20774;-39
2022/08/10 06:47:21;;;;;;;4.32;3.08;;;14.10;54.70;;;;;;5066102;28;20221;-37
2022/08/10 06:49:56;;;;;;;3.45;3.00;;;14.10;54.70;;;;;;5071030;28;20206;-37
2022/08/10 06:52:32;;;;;;;3.85;2.95;;;14.00;54.70;;;;;;5070983;28;20199;-39
2022/08/10 06:55:04;;;;;;;3.42;3.08;;;14.00;54.70;;;;;;5070411;28;20198;-40
2022/08/10 06:57:36;;;;;;;5.10;3.40;;;14.00;54.70;;;;;;5070763;28;20198;-37
2022/08/10 07:00:07;;;;;;;4.45;3.42;;;13.90;54.70;;;;;;5070559;28;20587;-41
2022/08/10 07:02:46;;;;;;;5.03;3.38;;;13.90;54.70;;;;;;5071262;28;20202;-37
2022/08/10 07:05:21;;;;;;;4.72;3.28;;;13.90;54.80;;;;;;5070470;28;20267;-38
2022/08/10 07:07:58;;;;;;;4.80;3.10;;;13.90;54.80;;;;;;5070870;28;20210;-40
2022/08/10 07:10:29;;;;;;;5.75;3.58;;;13.80;54.70;;;;;;5070594;28;20194;-37
2022/08/10 07:13:01;;;;;;;4.00;2.92;;;13.80;54.80;;;;;;5070857;28;20560;-37
2022/08/10 07:15:33;;;;;;;3.85;3.05;;;13.70;54.70;;;;;;5070509;28;20238;-38
2022/08/10 07:18:04;;;;;;;3.78;3.00;;;13.70;54.70;;;;;;5070555;28;20201;-37
2022/08/10 07:20:37;;;;;;;4.28;3.30;;;13.70;54.70;;;;;;5070569;28;20187;-38
2022/08/10 07:23:11;;;;;;;4.40;3.50;;;13.70;54.70;;;;;;5070878;28;20213;-40
2022/08/10 07:25:43;;;;;;;4.38;3.25;;;13.70;54.70;;;;;;5070483;28;20217;-43
2022/08/10 07:28:17;;;;;;;4.57;3.45;;;13.60;54.60;;;;;;5050608;28;20199;-37
2022/08/10 07:30:50;;;;;;;3.38;3.08;;;13.60;54.60;;;;;;5050265;28;20702;-40
2022/08/10 07:33:23;;;;;;;3.60;2.95;;;13.60;54.60;;;;;;5050555;28;20202;-38
2022/08/10 07:35:55;;;;;;;4.65;2.88;;;13.60;54.70;;;;;;5059140;28;20313;-40
2022/08/10 07:38:31;;;;;;;4.45;3.60;;;13.60;54.70;;;;;;5070655;28;20241;-40
2022/08/10 07:41:03;;;;;;;3.90;2.90;;;13.50;54.70;;;;;;5070626;28;20194;-37
2022/08/10 07:43:39;;;;;;;3.65;3.08;;;13.50;54.70;;;;;;5070724;28;20199;-37
2022/08/10 07:46:13;;;;;;;4.38;2.72;;;13.50;54.70;;;;;;5070737;28;20253;-37
2022/08/10 07:48:47;;;;;;;4.80;3.00;;;13.50;54.70;;;;;;5071117;28;20868;-37
2022/08/10 07:51:20;;;;;;;3.08;2.75;;;13.40;54.70;;;;;;5070265;28;20650;-37
2022/08/10 07:53:56;;;;;;;3.83;2.90;;;13.40;54.70;;;;;;5070630;28;20194;-37
2022/08/10 07:56:30;;;;;;;3.40;2.78;;;13.40;54.60;;;;;;5070130;28;20225;-41
2022/08/10 07:59:06;;;;;;;4.10;2.97;;;13.40;54.60;;;;;;5069699;28;20248;-38
2022/08/10 08:01:42;;;;;;;3.38;2.95;;;13.30;54.50;;;;;;5070037;28;20209;-39
2022/08/10 08:04:16;;;;;;;3.35;2.85;;;13.30;54.50;;;;;;5070638;28;20202;-37
2022/08/10 08:06:48;;;;;;;3.88;3.08;;;13.30;54.60;;;;;;5070927;28;20297;-37
2022/08/10 08:09:21;;;;;;;3.05;2.75;;;13.30;54.60;;;;;;5074591;28;20191;-48
2022/08/10 08:11:53;;;;;;;3.70;2.83;;;13.30;54.60;;;;;;5074251;28;20198;-37
2022/08/10 08:14:25;;;;;;;3.63;2.88;;;13.20;54.60;;;;;;5073882;28;20194;-37
2022/08/10 08:16:56;;;;;;;2.92;2.50;;;13.30;54.70;;;;;;5072527;28;20233;-41
2022/08/10 08:19:28;;;;;;;3.35;2.63;;;13.20;54.70;;;;;;5073699;28;20226;-37
2022/08/10 08:22:00;;;;;;;3.95;2.80;;;13.20;54.70;;;;;;5073720;28;20218;-41
2022/08/10 08:24:36;;;;;;;2.88;2.50;;;13.20;54.80;;;;;;5074009;28;20194;-37
2022/08/10 08:27:08;;;;;;;3.22;2.80;;;13.10;54.70;;;;;;5073287;28;20222;-43
2022/08/10 08:29:42;;;;;;;2.42;2.22;;;13.10;54.70;;;;;;5073980;28;20252;-37
2022/08/10 08:32:14;;;;;;;4.45;2.90;;;13.10;54.70;;;;;;5073788;28;20198;-38
2022/08/10 08:34:46;;;;;;;3.10;2.80;;;13.10;54.70;;;;;;5074009;28;20195;-37
2022/08/10 08:37:19;;;;;;;4.07;2.95;;;13.10;54.70;;;;;;5073813;28;20218;-37
2022/08/10 08:39:51;;;;;;;5.43;3.10;;;13.00;54.70;;;;;;5074157;28;20222;-42
2022/08/10 08:42:46;;;;;;;4.03;3.00;;;13.00;54.70;;;;;;5073647;28;20201;-38
2022/08/10 08:45:26;;;;;;;3.50;3.20;;;13.00;54.70;;;;;;5073512;28;20222;-43
2022/08/10 08:48:23;;;;;;;4.55;2.90;;;13.00;54.70;;;;;;5074054;28;20198;-38
2022/08/10 08:51:05;;;;;;;4.30;2.95;;;13.00;54.80;;;;;;5073121;28;20206;-43
2022/08/10 08:53:59;;;;;;;3.33;2.80;;;12.90;54.70;;;;;;5073052;28;20206;-38
2022/08/10 08:56:42;;;;;;;4.07;2.53;;;12.90;54.80;;;;;;5073316;28;20219;-37
2022/08/10 08:59:33;;;;;;;4.65;2.80;;;12.90;54.80;;;;;;5073134;28;20223;-40
2022/08/10 09:02:19;;;;;;;3.85;2.65;;;12.90;54.80;;;;;;5073584;28;20211;-42
2022/08/10 09:05:16;;;;;;;2.88;2.58;;;12.80;54.80;;;;;;5073830;28;20191;-37
2022/08/10 09:08:16;;;;;;;3.90;2.70;;;12.80;54.80;;;;;;5073325;28;20206;-37
2022/08/10 09:10:55;;;;;;;2.97;2.65;;;12.80;54.80;;;;;;5073135;28;20202;-37
2022/08/10 09:13:32;;;;;;;5.25;2.90;;;12.80;54.80;;;;;;5072896;28;20194;-39
2022/08/10 09:16:16;;;;;;;2.50;2.10;;;12.80;55.20;;;;;;5072954;28;20218;-37
2022/08/10 09:18:54;;;;;;;3.13;2.50;;;12.80;55.30;;;;;;5072586;28;20579;-39
2022/08/10 09:21:34;;;;;;;3.47;2.42;;;12.80;55.20;;;;;;5073398;28;20191;-37
2022/08/10 09:24:12;;;;;;;3.28;2.75;;;12.80;55.30;;;;;;5073113;28;20213;-37
2022/08/10 09:26:49;;;;;;;5.15;2.80;;;12.80;55.20;;;;;;5072479;28;20218;-37
2022/08/10 09:29:27;;;;;;;3.65;2.70;;;12.70;55.20;;;;;;5072544;28;20783;-37
2022/08/10 09:32:09;;;;;;;3.90;2.45;;;12.70;55.20;;;;;;5072811;28;20198;-37
2022/08/10 09:34:57;;;;;;;3.08;2.42;;;12.70;55.20;;;;;;5072974;28;20256;-41
2022/08/10 09:37:37;;;;;;;2.95;2.45;;;12.70;55.20;;;;;;5068044;28;20218;-41
2022/08/10 09:40:14;;;;;;;2.85;2.30;;;12.70;55.20;;;;;;5071811;28;20222;-45
2022/08/10 09:42:51;;;;;;;3.00;2.50;;;12.60;55.20;;;;;;5071597;28;20186;-37
2022/08/10 09:45:34;;;;;;;4.57;2.70;;;12.60;55.30;;;;;;5070905;28;20218;-48
2022/08/10 09:48:12;;;;;;;3.13;2.47;;;12.60;55.20;;;;;;5072913;28;20226;-38
2022/08/10 09:50:57;;;;;;;2.33;2.13;;;12.60;55.20;;;;;;5072094;28;20198;-38
2022/08/10 09:53:45;;;;;;;3.20;2.70;;;12.60;55.20;;;;;;5071882;28;20587;-38
2022/08/10 09:56:31;;;;;;;4.28;2.53;;;12.60;55.20;;;;;;5060423;28;20223;-40
2022/08/10 09:59:10;;;;;;;2.40;2.20;;;12.60;55.20;;;;;;5071339;28;20209;-39
2022/08/10 10:01:46;;;;;;;2.88;2.08;;;12.60;55.20;;;;;;5071142;28;20206;-37
2022/08/10 10:04:27;;;;;;;3.55;2.00;;;12.60;55.20;;;;;;5071777;28;20677;-39
2022/08/10 10:07:00;;;;;;;2.60;2.22;;;12.60;55.20;;;;;;5070889;28;20214;-37
2022/08/10 10:09:38;;;;;;;3.05;2.22;;;12.50;55.20;;;;;;5071478;28;20616;-37
2022/08/10 10:12:24;;;;;;;2.50;2.15;;;12.50;55.20;;;;;;5078620;28;20193;-37
2022/08/10 10:15:22;;;;;;;4.00;2.53;;;12.50;55.30;;;;;;5091217;28;20197;-37
2022/08/10 10:18:13;;;;;;;2.97;2.30;;;12.50;55.30;;;;;;5082260;28;20907;-39
2022/08/10 10:20:54;;;;;;;4.15;2.33;;;12.50;55.20;;;;;;5091844;28;20222;-44
2022/08/10 10:23:36;;;;;;;4.70;2.60;;;12.50;55.20;;;;;;5091250;28;20194;-42
2022/08/10 10:26:18;;;;;;;4.68;2.70;;;12.50;55.20;;;;;;5088034;28;20223;-45
2022/08/10 10:29:01;;;;;;;3.38;2.25;;;12.50;55.20;;;;;;5070546;28;20202;-37
2022/08/10 10:31:40;;;;;;;4.85;2.60;;;12.50;55.20;;;;;;5067987;28;20593;-46
2022/08/10 10:34:19;;;;;;;3.70;2.47;;;12.50;55.20;;;;;;5090821;28;20198;-40
2022/08/10 10:36:51;;;;;;;4.55;2.67;;;12.40;55.10;;;;;;5091157;28;20217;-48
2022/08/10 10:39:25;;;;;;;2.35;2.05;;;12.40;55.20;;;;;;5091152;28;20214;-43
2022/08/10 10:42:05;;;;;;;3.42;2.33;;;12.40;55.20;;;;;;5090619;28;20189;-38
2022/08/10 10:44:54;;;;;;;3.03;2.20;;;12.40;55.20;;;;;;5091501;28;20669;-40
2022/08/10 10:47:45;;;;;;;3.95;2.25;;;12.40;55.20;;;;;;5091099;28;20243;-43
2022/08/10 10:50:23;;;;;;;3.45;2.45;;;12.40;55.20;;;;;;5090754;28;20240;-38
2022/08/10 10:53:14;;;;;;;4.78;2.40;;;12.40;55.20;;;;;;5090191;28;20200;-37
2022/08/10 10:55:54;;;;;;;3.35;2.13;;;12.30;55.20;;;;;;5069871;28;20222;-40
2022/08/10 10:58:32;;;;;;;3.40;2.58;;;12.30;55.20;;;;;;5070882;28;20194;-42
2022/08/10 11:01:12;;;;;;;3.70;2.35;;;12.30;55.20;;;;;;5069655;28;20221;-45
2022/08/10 11:04:10;;;;;;;5.22;2.47;;;12.30;55.20;;;;;;5071180;28;20183;-37
2022/08/10 11:06:52;;;;;;;4.03;2.45;;;12.30;55.20;;;;;;5070491;28;20218;-40
2022/08/10 11:09:27;;;;;;;3.28;2.38;;;12.30;55.10;;;;;;5070853;28;20194;-41
2022/08/10 11:12:01;;;;;;;3.72;2.38;;;12.30;55.10;;;;;;5071979;28;20680;-43
2022/08/10 11:14:42;;;;;;;3.10;2.20;;;12.30;55.20;;;;;;5090643;28;20197;-46
2022/08/10 11:17:18;;;;;;;3.22;2.38;;;12.30;55.20;;;;;;5089956;28;20212;-40
2022/08/10 11:20:01;;;;;;;4.50;2.30;;;12.30;55.20;;;;;;5090634;28;20232;-38
2022/08/10 11:22:40;;;;;;;3.20;2.17;;;12.30;55.20;;;;;;5090568;28;20186;-39
2022/08/10 11:25:21;;;;;;;2.97;2.28;;;12.20;55.20;;;;;;5090233;28;20194;-37
2022/08/10 11:28:00;;;;;;;3.35;2.17;;;12.20;55.20;;;;;;5072829;28;20195;-37
2022/08/10 11:30:38;;;;;;;2.50;2.15;;;12.20;55.20;;;;;;5070412;28;20199;-42
2022/08/10 11:33:17;;;;;;;3.30;2.40;;;12.20;55.20;;;;;;5075322;28;20194;-37
2022/08/10 11:35:51;;;;;;;2.75;2.05;;;12.20;55.30;;;;;;5090259;28;20214;-44
2022/08/10 11:38:31;;;;;;;3.67;2.33;;;12.20;55.20;;;;;;5089976;28;20215;-37
2022/08/10 11:41:11;;;;;;;3.00;2.28;;;12.20;55.30;;;;;;5074459;28;20604;-40
2022/08/10 11:43:50;;;;;;;2.78;2.10;;;12.20;55.20;;;;;;5070825;28;20198;-38
2022/08/10 11:46:25;;;;;;;2.67;2.25;;;12.20;55.20;;;;;;5068899;28;20214;-55
2022/08/10 11:49:07;;;;;;;5.63;2.72;;;12.20;55.20;;;;;;5070312;28;20202;-42
2022/08/10 11:51:45;;;;;;;4.03;2.72;;;12.20;55.20;;;;;;5069783;28;20199;-38
2022/08/10 11:54:29;;;;;;;3.60;2.30;;;12.20;55.20;;;;;;5069205;28;20209;-37
2022/08/10 11:57:02;;;;;;;3.72;2.40;;;12.20;55.20;;;;;;5068867;28;20264;-41
2022/08/10 12:02:24;;;;;;;3.20;2.22;;;12.20;55.20;;;;;;5068717;28;20241;-41
2022/08/10 12:04:59;;;;;;;3.75;2.38;;;12.20;55.20;;;;;;5068585;28;20194;-37
2022/08/10 12:07:31;;;;;;;4.65;2.78;;;12.20;55.30;;;;;;5068456;28;20202;-42
2022/08/10 12:10:05;;;;;;;3.63;2.30;;;12.10;55.20;;;;;;5068848;28;20218;-39
2022/08/10 12:12:41;;;;;;;4.22;2.55;;;12.10;55.30;;;;;;5068885;28;20202;-44
2022/08/10 12:15:21;;;;;;;3.00;2.20;;;12.10;55.30;;;;;;5068963;28;20190;-49
2022/08/10 12:17:54;;;;;;;3.75;2.60;;;12.10;55.30;;;;;;5068071;28;20199;-40
2022/08/10 12:20:30;;;;;;;3.75;2.17;;;12.20;55.30;;;;;;5068124;28;20313;-37
2022/08/10 12:23:09;;;;;;;3.15;2.10;;;12.10;55.20;;;;;;5068893;28;20199;-38
2022/08/10 12:25:53;;;;;;;4.55;2.20;;;12.20;55.20;;;;;;5068631;28;20210;-38
2022/08/10 12:28:30;;;;;;;3.60;2.22;;;12.10;55.20;;;;;;5048347;28;20206;-45
2022/08/10 12:31:03;;;;;;;4.55;2.10;;;12.10;55.10;;;;;;5048772;28;20191;-46
2022/08/10 12:33:40;;;;;;;3.35;2.22;;;12.10;55.20;;;;;;5066878;28;20199;-37
2022/08/10 12:36:17;;;;;;;3.92;2.53;;;12.10;55.20;;;;;;5068111;28;20219;-52
2022/08/10 12:38:57;;;;;;;3.15;2.08;;;12.10;55.20;;;;;;5068253;28;20198;-50
2022/08/10 12:41:34;;;;;;;5.25;2.60;;;12.10;55.20;;;;;;5068697;28;20222;-50
2022/08/10 12:44:10;;;;;;;4.10;2.20;;;12.10;55.20;;;;;;5068921;28;20676;-39
2022/08/10 12:46:44;;;;;;;3.20;2.38;;;12.10;55.20;;;;;;5067735;28;20686;-43
2022/08/10 12:49:22;;;;;;;2.92;2.13;;;12.10;55.20;;;;;;5068760;28;20650;-37
2022/08/10 12:52:01;;;;;;;3.65;2.20;;;12.10;55.20;;;;;;5068516;28;20199;-40
2022/08/10 12:54:37;;;;;;;3.10;2.22;;;12.10;55.20;;;;;;5070170;28;20195;-45
2022/08/10 12:57:13;;;;;;;3.92;2.35;;;12.10;55.10;;;;;;5061431;28;20211;-38
2022/08/10 12:59:46;;;;;;;2.63;1.90;;;12.10;55.10;;;;;;5052069;28;20231;-44
2022/08/10 13:02:23;;;;;;;4.28;2.25;;;12.10;55.10;;;;;;5063790;28;20217;-44
2022/08/10 13:04:55;;;;;;;2.72;1.90;;;12.10;55.10;;;;;;5092198;28;20202;-38
2022/08/10 13:07:28;;;;;;;3.00;1.90;;;12.10;55.10;;;;;;5091754;28;20562;-38
2022/08/10 13:10:05;;;;;;;2.58;2.15;;;12.10;55.10;;;;;;5085041;28;20190;-38
2022/08/10 13:12:40;;;;;;;3.47;2.42;;;12.10;55.10;;;;;;5071801;28;20198;-40
2022/08/10 13:15:19;;;;;;;3.22;2.40;;;12.00;55.10;;;;;;5072042;28;20209;-45
2022/08/10 13:17:52;;;;;;;2.95;2.22;;;12.00;55.10;;;;;;5071443;28;20205;-39
2022/08/10 13:20:27;;;;;;;3.88;2.30;;;12.10;55.10;;;;;;5071639;28;20214;-39
2022/08/10 13:23:02;;;;;;;2.78;2.10;;;12.00;55.10;;;;;;5071771;28;20200;-38
2022/08/10 13:25:38;;;;;;;3.78;2.05;;;12.00;55.10;;;;;;5071495;28;20215;-43
2022/08/10 13:28:13;;;;;;;3.30;2.08;;;12.00;55.10;;;;;;5071525;28;20673;-42
2022/08/10 13:30:47;;;;;;;3.83;2.00;;;12.10;55.10;;;;;;5071629;28;20200;-37
2022/08/10 13:33:20;;;;;;;2.50;2.10;;;12.00;55.10;;;;;;5071804;28;20210;-38
2022/08/10 13:35:56;;;;;;;2.92;2.20;;;12.00;55.10;;;;;;5071509;28;20210;-42
2022/08/10 13:38:29;;;;;;;2.75;2.38;;;12.00;55.10;;;;;;5071649;28;20662;-37